createdAt,value
2023-02-19T00:00:23.860Z,2.91
2023-02-19T00:03:52.466Z,2.88
2023-02-19T00:06:55.246Z,2.85
2023-02-19T00:09:57.957Z,2.85
2023-02-19T00:13:00.691Z,2.86
2023-02-19T00:16:12.711Z,2.86
2023-02-19T00:19:19.040Z,2.81
2023-02-19T00:22:21.813Z,2.82
2023-02-19T00:25:24.578Z,2.82
2023-02-19T00:28:27.462Z,2.81
2023-02-19T00:31:33.634Z,2.79
2023-02-19T00:34:36.618Z,2.80
2023-02-19T00:37:39.386Z,2.83
2023-02-19T00:40:42.194Z,2.86
2023-02-19T00:43:57.134Z,2.86
2023-02-19T00:46:59.862Z,2.88
2023-02-19T00:50:02.683Z,2.88
2023-02-19T00:53:05.455Z,2.89
2023-02-19T00:56:08.735Z,2.93
2023-02-19T00:59:12.072Z,2.97
2023-02-19T01:02:14.874Z,3.02
2023-02-19T01:05:17.671Z,3.07
2023-02-19T01:08:21.262Z,3.09
2023-02-19T01:11:24.159Z,3.12
2023-02-19T01:14:27.532Z,3.14
2023-02-19T01:17:30.335Z,3.13
2023-02-19T01:20:33.036Z,3.14
2023-02-19T01:23:36.501Z,3.11
2023-02-19T01:26:40.623Z,3.05
2023-02-19T01:29:43.667Z,3.02
2023-02-19T01:32:46.468Z,3.00
2023-02-19T01:35:49.331Z,2.97
2023-02-19T01:38:52.365Z,2.97
2023-02-19T01:41:55.219Z,2.92
2023-02-19T01:45:22.150Z,2.91
2023-02-19T01:48:38.104Z,2.88
2023-02-19T01:52:02.121Z,2.86
2023-02-19T01:55:11.108Z,2.85
2023-02-19T01:58:15.683Z,2.80
2023-02-19T02:01:18.501Z,2.85
2023-02-19T02:04:21.232Z,2.80
2023-02-19T02:07:43.039Z,2.78
2023-02-19T02:10:45.850Z,2.77
2023-02-19T02:13:49.802Z,2.78
2023-02-19T02:17:12.762Z,2.76
2023-02-19T02:20:15.481Z,2.77
2023-02-19T02:23:30.093Z,2.77
2023-02-19T02:26:40.091Z,2.77
2023-02-19T02:30:04.278Z,2.75
2023-02-19T02:33:25.536Z,2.72
2023-02-19T02:36:35.843Z,2.72
2023-02-19T02:39:40.889Z,2.72
2023-02-19T02:42:44.740Z,2.76
2023-02-19T02:45:49.270Z,2.75
2023-02-19T02:49:06.559Z,2.72
2023-02-19T02:52:29.901Z,2.75
2023-02-19T02:55:39.308Z,2.73
2023-02-19T02:58:44.499Z,2.71
2023-02-19T03:02:14.037Z,2.70
2023-02-19T03:05:50.710Z,2.71
2023-02-19T03:08:56.140Z,2.73
2023-02-19T03:12:21.800Z,2.76
2023-02-19T03:15:50.964Z,2.77
2023-02-19T03:19:15.549Z,2.79
2023-02-19T03:22:25.869Z,2.81
2023-02-19T03:25:52.399Z,2.80
2023-02-19T03:29:22.571Z,2.83
2023-02-19T03:32:35.901Z,2.84
2023-02-19T03:35:44.912Z,2.82
2023-02-19T03:38:56.751Z,2.79
2023-02-19T03:42:13.882Z,2.81
2023-02-19T03:45:37.806Z,2.86
2023-02-19T03:49:05.112Z,2.91
2023-02-19T03:52:50.070Z,2.88
2023-02-19T03:56:05.726Z,2.80
2023-02-19T03:59:18.598Z,2.79
2023-02-19T04:03:04.544Z,2.78
2023-02-19T04:06:13.896Z,2.75
2023-02-19T04:09:17.794Z,2.73
2023-02-19T04:12:24.433Z,2.70
2023-02-19T04:15:32.243Z,2.69
2023-02-19T04:18:39.832Z,2.69
2023-02-19T04:21:45.244Z,2.65
2023-02-19T04:24:50.277Z,2.63
2023-02-19T04:27:53.608Z,2.58
2023-02-19T04:30:56.403Z,2.51
2023-02-19T04:33:59.204Z,2.46
2023-02-19T04:37:01.929Z,2.41
2023-02-19T04:40:05.253Z,2.36
2023-02-19T04:43:08.107Z,2.33
2023-02-19T04:46:10.990Z,2.30
2023-02-19T04:49:13.855Z,2.26
2023-02-19T04:52:16.878Z,2.23
2023-02-19T04:55:19.798Z,2.23
2023-02-19T04:58:22.610Z,2.22
2023-02-19T05:01:26.075Z,2.26
2023-02-19T05:04:28.857Z,2.32
2023-02-19T05:07:31.633Z,2.32
2023-02-19T05:10:35.030Z,2.31
2023-02-19T05:13:39.010Z,2.36
2023-02-19T05:16:41.772Z,2.38
2023-02-19T05:19:44.496Z,2.42
2023-02-19T05:22:47.353Z,2.42
2023-02-19T05:25:50.072Z,2.45
2023-02-19T05:28:53.943Z,2.47
2023-02-19T05:31:56.778Z,2.46
2023-02-19T05:34:59.573Z,2.46
2023-02-19T05:38:02.278Z,2.46
2023-02-19T05:41:19.831Z,2.52
2023-02-19T05:44:22.588Z,2.52
2023-02-19T05:47:25.335Z,2.50
2023-02-19T05:50:28.822Z,2.48
2023-02-19T05:53:32.887Z,2.50
2023-02-19T05:56:41.054Z,2.50
2023-02-19T05:59:43.868Z,2.48
2023-02-19T06:02:47.361Z,2.47
2023-02-19T06:05:50.303Z,2.51
2023-02-19T06:08:53.137Z,2.51
2023-02-19T06:11:55.970Z,2.49
2023-02-19T06:14:58.716Z,2.47
2023-02-19T06:18:02.283Z,2.44
2023-02-19T06:21:06.718Z,2.42
2023-02-19T06:24:10.265Z,2.42
2023-02-19T06:27:13.094Z,2.45
2023-02-19T06:30:16.055Z,2.45
2023-02-19T06:33:18.821Z,2.46
2023-02-19T06:36:22.891Z,2.49
2023-02-19T06:39:26.666Z,2.52
2023-02-19T06:42:33.107Z,2.56
2023-02-19T06:45:35.950Z,2.57
2023-02-19T06:48:39.859Z,2.60
2023-02-19T06:51:42.909Z,2.61
2023-02-19T06:54:45.706Z,2.64
2023-02-19T06:57:48.474Z,2.68
2023-02-19T07:00:51.612Z,2.69
2023-02-19T07:03:54.814Z,2.72
2023-02-19T07:06:57.754Z,2.73
2023-02-19T07:10:00.536Z,2.71
2023-02-19T07:13:03.415Z,2.72
2023-02-19T07:16:09.174Z,2.75
2023-02-19T07:19:12.173Z,2.75
2023-02-19T07:22:15.069Z,2.78
2023-02-19T07:25:18.033Z,2.81
2023-02-19T07:28:20.798Z,2.86
2023-02-19T07:31:24.826Z,2.89
2023-02-19T07:34:27.873Z,2.88
2023-02-19T07:37:30.585Z,2.85
2023-02-19T07:40:34.549Z,2.86
2023-02-19T07:43:38.469Z,2.90
2023-02-19T07:46:41.251Z,2.92
2023-02-19T07:49:44.117Z,2.97
2023-02-19T07:52:47.002Z,3.02
2023-02-19T07:55:50.401Z,3.06
2023-02-19T07:58:53.167Z,3.08
2023-02-19T08:02:14.662Z,3.13
2023-02-19T08:05:17.517Z,3.20
2023-02-19T08:08:20.241Z,3.26
2023-02-19T08:11:41.370Z,3.27
2023-02-19T08:14:44.460Z,3.30
2023-02-19T08:17:47.236Z,3.33
2023-02-19T08:20:50.420Z,3.33
2023-02-19T08:23:53.256Z,3.34
2023-02-19T08:26:56.035Z,3.35
2023-02-19T08:29:59.110Z,3.36
2023-02-19T08:33:02.595Z,3.40
2023-02-19T08:36:07.664Z,3.38
2023-02-19T08:39:10.445Z,3.40
2023-02-19T08:42:13.307Z,3.48
2023-02-19T08:45:16.175Z,3.58
2023-02-19T08:48:18.943Z,3.63
2023-02-19T08:51:21.740Z,3.66
2023-02-19T08:54:24.470Z,3.76
2023-02-19T08:57:29.297Z,3.89
2023-02-19T09:00:32.229Z,3.98
2023-02-19T09:03:34.948Z,4.11
2023-02-19T09:06:40.008Z,4.20
2023-02-19T09:09:42.982Z,4.22
2023-02-19T09:12:45.784Z,4.29
2023-02-19T09:15:48.569Z,4.28
2023-02-19T09:18:51.383Z,4.26
2023-02-19T09:21:54.615Z,4.23
2023-02-19T09:24:57.341Z,4.17
2023-02-19T09:28:00.103Z,4.08
2023-02-19T09:31:07.747Z,4.01
2023-02-19T09:34:11.836Z,3.99
2023-02-19T09:37:14.603Z,4.01
2023-02-19T09:40:21.644Z,4.04
2023-02-19T09:43:27.934Z,4.11
2023-02-19T09:46:42.147Z,4.13
2023-02-19T09:49:52.063Z,4.12
2023-02-19T09:53:03.157Z,4.12
2023-02-19T09:56:07.336Z,4.12
2023-02-19T09:59:19.651Z,4.14
2023-02-19T10:02:24.670Z,4.24
2023-02-19T10:05:28.305Z,4.35
2023-02-19T10:08:33.369Z,4.50
2023-02-19T10:11:36.651Z,4.71
2023-02-19T10:14:44.862Z,4.82
2023-02-19T10:17:47.575Z,4.83
2023-02-19T10:20:52.465Z,4.83
2023-02-19T10:24:00.715Z,4.84
2023-02-19T10:27:03.561Z,4.81
2023-02-19T10:30:14.479Z,4.72
2023-02-19T10:33:17.391Z,4.68
2023-02-19T10:36:26.447Z,4.70
2023-02-19T10:39:43.827Z,4.67
2023-02-19T10:42:47.982Z,4.67
2023-02-19T10:45:53.023Z,4.71
2023-02-19T10:48:59.923Z,4.69
2023-02-19T10:52:17.814Z,4.61
2023-02-19T10:55:23.379Z,4.54
2023-02-19T10:58:30.511Z,4.51
2023-02-19T11:01:33.280Z,4.58
2023-02-19T11:04:38.173Z,4.63
2023-02-19T11:07:51.300Z,4.65
2023-02-19T11:10:54.558Z,4.61
2023-02-19T11:13:59.546Z,4.64
2023-02-19T11:17:05.792Z,4.63
2023-02-19T11:20:17.662Z,4.62
2023-02-19T11:23:27.613Z,4.57
2023-02-19T11:26:38.117Z,4.61
2023-02-19T11:29:40.919Z,4.75
2023-02-19T11:32:43.663Z,4.97
2023-02-19T11:35:48.172Z,5.00
2023-02-19T11:38:50.995Z,4.91
2023-02-19T11:42:49.637Z,4.78
2023-02-19T11:46:14.091Z,4.75
2023-02-19T11:49:44.225Z,4.68
2023-02-19T11:53:02.241Z,4.61
2023-02-19T11:56:16.816Z,4.68
2023-02-19T11:59:31.774Z,4.78
2023-02-19T12:03:00.431Z,4.97
2023-02-19T12:06:15.375Z,5.09
2023-02-19T12:09:27.153Z,5.17
2023-02-19T12:13:04.538Z,5.08
2023-02-19T12:16:25.080Z,4.97
2023-02-19T12:19:43.994Z,4.83
2023-02-19T12:23:05.570Z,4.70
2023-02-19T12:26:22.998Z,4.71
2023-02-19T12:30:13.243Z,4.98
2023-02-19T12:33:37.948Z,5.17
2023-02-19T12:37:01.074Z,5.14
2023-02-19T12:40:22.888Z,5.01
2023-02-19T12:43:25.951Z,4.83
2023-02-19T12:46:36.058Z,4.69
2023-02-19T12:49:47.556Z,4.66
2023-02-19T12:52:55.244Z,4.74
2023-02-19T12:56:00.563Z,4.78
2023-02-19T12:59:15.873Z,4.80
2023-02-19T13:02:38.871Z,4.79
2023-02-19T13:05:54.385Z,4.87
2023-02-19T13:09:06.632Z,4.94
2023-02-19T13:12:21.241Z,4.89
2023-02-19T13:15:46.335Z,4.87
2023-02-19T13:18:54.276Z,4.87
2023-02-19T13:22:40.063Z,4.78
2023-02-19T13:26:00.064Z,4.69
2023-02-19T13:29:54.101Z,4.56
2023-02-19T13:33:02.685Z,4.47
2023-02-19T13:36:25.864Z,4.41
2023-02-19T13:39:31.008Z,4.33
2023-02-19T13:42:36.326Z,4.29
2023-02-19T13:45:46.223Z,4.32
2023-02-19T13:49:08.994Z,4.38
2023-02-19T13:52:30.133Z,4.49
2023-02-19T13:55:42.962Z,4.64
2023-02-19T13:59:13.463Z,4.74
2023-02-19T14:02:22.400Z,4.66
2023-02-19T14:06:03.119Z,4.62
2023-02-19T14:09:35.574Z,4.58
2023-02-19T14:12:38.578Z,4.56
2023-02-19T14:15:49.560Z,4.47
2023-02-19T14:18:52.761Z,4.33
2023-02-19T14:21:55.571Z,4.24
2023-02-19T14:24:58.825Z,4.25
2023-02-19T14:28:19.366Z,4.28
2023-02-19T14:31:29.515Z,4.35
2023-02-19T14:34:33.373Z,4.42
2023-02-19T14:37:36.233Z,4.47
2023-02-19T14:40:43.332Z,4.48
2023-02-19T14:43:49.716Z,4.57
2023-02-19T14:46:57.932Z,4.67
2023-02-19T14:50:35.149Z,4.62
2023-02-19T14:53:42.687Z,4.55
2023-02-19T14:56:51.075Z,4.44
2023-02-19T15:00:02.342Z,4.34
2023-02-19T15:03:06.750Z,4.22
2023-02-19T15:06:17.600Z,4.11
2023-02-19T15:09:22.054Z,4.03
2023-02-19T15:12:28.909Z,4.00
2023-02-19T15:15:35.074Z,3.92
2023-02-19T15:18:38.221Z,3.83
2023-02-19T15:21:46.140Z,3.73
2023-02-19T15:24:49.248Z,3.66
2023-02-19T15:27:52.339Z,3.60
2023-02-19T15:30:59.074Z,3.67
2023-02-19T15:34:02.285Z,3.80
2023-02-19T15:37:09.656Z,3.92
2023-02-19T15:40:14.926Z,4.00
2023-02-19T15:43:25.981Z,3.98
2023-02-19T15:46:29.436Z,3.91
2023-02-19T15:49:54.047Z,3.84
2023-02-19T15:53:14.225Z,3.75
2023-02-19T15:56:32.143Z,3.70
2023-02-19T15:59:39.389Z,3.63
2023-02-19T16:02:42.581Z,3.56
2023-02-19T16:05:46.306Z,3.53
2023-02-19T16:08:51.982Z,3.53
2023-02-19T16:11:58.002Z,3.49
2023-02-19T16:15:12.393Z,3.44
2023-02-19T16:18:15.556Z,3.41
2023-02-19T16:21:22.918Z,3.46
2023-02-19T16:24:33.811Z,3.60
2023-02-19T16:27:40.086Z,3.69
2023-02-19T16:30:43.104Z,3.67
2023-02-19T16:33:49.865Z,3.62
2023-02-19T16:36:52.796Z,3.55
2023-02-19T16:40:07.602Z,3.46
2023-02-19T16:43:37.688Z,3.36
2023-02-19T16:46:41.039Z,3.30
2023-02-19T16:49:44.373Z,3.24
2023-02-19T16:52:58.373Z,3.19
2023-02-19T16:56:01.357Z,3.12
2023-02-19T16:59:05.135Z,3.04
2023-02-19T17:02:15.115Z,3.11
2023-02-19T17:05:19.929Z,3.21
2023-02-19T17:08:31.246Z,3.27
2023-02-19T17:11:34.819Z,3.23
2023-02-19T17:14:37.614Z,3.12
2023-02-19T17:17:41.081Z,3.04
2023-02-19T17:20:49.821Z,2.93
2023-02-19T17:23:54.073Z,2.84
2023-02-19T17:26:56.842Z,2.73
2023-02-19T17:29:59.601Z,2.62
2023-02-19T17:33:02.669Z,2.52
2023-02-19T17:36:06.367Z,2.45
2023-02-19T17:39:15.237Z,2.39
2023-02-19T17:42:18.887Z,2.34
2023-02-19T17:45:22.016Z,2.29
2023-02-19T17:48:24.824Z,2.27
2023-02-19T17:51:28.032Z,2.26
2023-02-19T17:54:30.774Z,2.23
2023-02-19T17:57:33.900Z,2.20
2023-02-19T18:00:37.470Z,2.20
2023-02-19T18:03:40.273Z,2.18
2023-02-19T18:06:43.347Z,2.16
2023-02-19T18:09:46.237Z,2.14
2023-02-19T18:12:49.653Z,2.10
2023-02-19T18:15:53.672Z,2.03
2023-02-19T18:18:58.348Z,1.96
2023-02-19T18:22:01.405Z,1.93
2023-02-19T18:25:04.287Z,1.88
2023-02-19T18:28:07.796Z,1.86
2023-02-19T18:31:11.052Z,1.84
2023-02-19T18:34:18.922Z,1.78
2023-02-19T18:37:23.678Z,1.80
2023-02-19T18:40:26.709Z,1.83
2023-02-19T18:43:29.439Z,1.83
2023-02-19T18:46:32.437Z,1.83
2023-02-19T18:49:35.780Z,1.80
2023-02-19T18:52:38.810Z,1.78
2023-02-19T18:55:41.795Z,1.79
2023-02-19T18:58:44.572Z,1.76
2023-02-19T19:01:47.461Z,1.72
2023-02-19T19:04:54.212Z,1.68
2023-02-19T19:07:59.346Z,1.62
2023-02-19T19:11:02.438Z,1.55
2023-02-19T19:14:05.537Z,1.48
2023-02-19T19:17:08.604Z,1.45
2023-02-19T19:20:11.737Z,1.39
2023-02-19T19:23:14.503Z,1.37
2023-02-19T19:26:17.853Z,1.36
2023-02-19T19:29:22.174Z,1.34
2023-02-19T19:32:25.058Z,1.35
2023-02-19T19:35:28.710Z,1.35
2023-02-19T19:38:31.537Z,1.35
2023-02-19T19:41:34.794Z,1.32
2023-02-19T19:44:37.695Z,1.32
2023-02-19T19:47:40.495Z,1.31
2023-02-19T19:50:43.255Z,1.29
2023-02-19T19:53:49.682Z,1.27
2023-02-19T19:56:52.419Z,1.27
2023-02-19T19:59:55.275Z,1.26
2023-02-19T20:02:58.363Z,1.25
2023-02-19T20:06:01.554Z,1.22
2023-02-19T20:09:04.305Z,1.21
2023-02-19T20:12:07.721Z,1.16
2023-02-19T20:15:11.527Z,1.11
2023-02-19T20:18:14.323Z,1.04
2023-02-19T20:21:17.624Z,0.98
2023-02-19T20:24:24.391Z,0.96
2023-02-19T20:27:27.242Z,0.96
2023-02-19T20:30:30.018Z,0.96
2023-02-19T20:33:33.386Z,0.99
2023-02-19T20:36:45.437Z,0.99
2023-02-19T20:39:48.173Z,0.99
2023-02-19T20:42:50.950Z,0.97
2023-02-19T20:45:53.693Z,0.97
2023-02-19T20:48:57.020Z,0.96
2023-02-19T20:52:02.788Z,0.95
2023-02-19T20:55:06.172Z,0.94
2023-02-19T20:58:09.000Z,0.93
2023-02-19T21:01:12.184Z,0.94
2023-02-19T21:04:15.154Z,0.92
2023-02-19T21:07:17.921Z,0.90
2023-02-19T21:10:20.768Z,0.89
2023-02-19T21:13:23.735Z,0.88
2023-02-19T21:16:28.154Z,0.88
2023-02-19T21:19:30.909Z,0.87
2023-02-19T21:22:33.725Z,0.87
2023-02-19T21:25:36.498Z,0.83
2023-02-19T21:28:40.715Z,0.75
2023-02-19T21:31:46.769Z,0.70
2023-02-19T21:34:49.569Z,0.64
2023-02-19T21:37:52.322Z,0.60
2023-02-19T21:40:55.256Z,0.54
2023-02-19T21:43:58.264Z,0.53
2023-02-19T21:47:01.179Z,0.53
2023-02-19T21:50:04.424Z,0.50
2023-02-19T21:53:07.425Z,0.47
2023-02-19T21:56:10.891Z,0.45
2023-02-19T21:59:13.961Z,0.42
2023-02-19T22:02:19.916Z,0.40
2023-02-19T22:05:24.483Z,0.38
2023-02-19T22:08:27.216Z,0.39
2023-02-19T22:11:30.023Z,0.39
2023-02-19T22:14:32.756Z,0.40
2023-02-19T22:17:35.489Z,0.39
2023-02-19T22:20:39.587Z,0.39
2023-02-19T22:23:50.702Z,0.39
2023-02-19T22:26:58.009Z,0.42
2023-02-19T22:30:00.887Z,0.43
2023-02-19T22:33:03.897Z,0.47
2023-02-19T22:36:14.747Z,0.52
2023-02-19T22:39:23.362Z,0.58
2023-02-19T22:42:26.192Z,0.62
2023-02-19T22:45:28.882Z,0.64
2023-02-19T22:48:31.677Z,0.68
2023-02-19T22:51:35.734Z,0.69
2023-02-19T22:54:39.634Z,0.71
2023-02-19T22:57:42.472Z,0.70
2023-02-19T23:00:45.211Z,0.69
2023-02-19T23:04:05.936Z,0.70
2023-02-19T23:07:09.342Z,0.68
2023-02-19T23:10:13.312Z,0.70
2023-02-19T23:13:16.193Z,0.71
2023-02-19T23:16:19.516Z,0.72
2023-02-19T23:19:23.298Z,0.74
2023-02-19T23:22:26.334Z,0.75
2023-02-19T23:25:29.090Z,0.77
2023-02-19T23:28:31.869Z,0.78
2023-02-19T23:31:34.869Z,0.79
2023-02-19T23:34:37.744Z,0.80
2023-02-19T23:37:40.475Z,0.80
2023-02-19T23:40:43.401Z,0.82
2023-02-19T23:43:46.227Z,0.82
2023-02-19T23:46:49.615Z,0.83
2023-02-19T23:49:52.586Z,0.84
2023-02-19T23:52:56.959Z,0.84
2023-02-19T23:55:59.849Z,0.81
2023-02-19T23:59:02.644Z,0.80
